createdAt,value
2017-03-28T00:00:17.806Z,931.53
2017-03-28T00:00:46.325Z,931.47
2017-03-28T00:01:14.596Z,931.48
2017-03-28T00:01:42.939Z,931.49
2017-03-28T00:02:11.350Z,931.47
2017-03-28T00:02:39.589Z,931.53
2017-03-28T00:03:07.778Z,931.5
2017-03-28T00:03:36.015Z,931.51
2017-03-28T00:04:04.485Z,931.53
2017-03-28T00:04:32.896Z,931.54
2017-03-28T00:05:01.407Z,931.5
2017-03-28T00:05:29.759Z,931.51
2017-03-28T00:05:58.123Z,931.52
2017-03-28T00:06:26.547Z,931.54
2017-03-28T00:06:55.011Z,931.54
2017-03-28T00:07:23.381Z,931.54
2017-03-28T00:07:51.422Z,931.55
2017-03-28T00:08:19.829Z,931.55
2017-03-28T00:08:48.235Z,931.57
2017-03-28T00:09:16.636Z,931.54
2017-03-28T00:09:45.082Z,931.55
2017-03-28T00:10:13.352Z,931.55
2017-03-28T00:10:41.946Z,931.57
2017-03-28T00:11:10.312Z,931.55
2017-03-28T00:11:38.686Z,931.55
2017-03-28T00:12:07.250Z,931.6
2017-03-28T00:12:35.486Z,931.57
2017-03-28T00:13:03.894Z,931.58
2017-03-28T00:13:32.331Z,931.63
2017-03-28T00:14:00.636Z,931.61
2017-03-28T00:14:29.003Z,931.59
2017-03-28T00:14:57.396Z,931.6
2017-03-28T00:15:25.699Z,931.63
2017-03-28T00:15:54.124Z,931.63
2017-03-28T00:16:22.429Z,931.61
2017-03-28T00:16:51.007Z,931.6
2017-03-28T00:17:19.398Z,931.62
2017-03-28T00:17:47.910Z,931.63
2017-03-28T00:18:16.322Z,931.62
2017-03-28T00:18:44.550Z,931.64
2017-03-28T00:19:12.899Z,931.63
2017-03-28T00:19:41.429Z,931.65
2017-03-28T00:20:09.921Z,931.6
2017-03-28T00:20:38.547Z,931.62
2017-03-28T00:21:06.992Z,931.65
2017-03-28T00:21:35.429Z,931.62
2017-03-28T00:22:03.740Z,931.64
2017-03-28T00:22:32.244Z,931.63
2017-03-28T00:23:00.679Z,931.65
2017-03-28T00:23:28.790Z,931.65
2017-03-28T00:23:57.094Z,931.64
2017-03-28T00:24:25.500Z,931.63
2017-03-28T00:24:53.740Z,931.64
2017-03-28T00:25:21.927Z,931.64
2017-03-28T00:25:50.326Z,931.67
2017-03-28T00:26:18.546Z,931.69
2017-03-28T00:26:46.741Z,931.67
2017-03-28T00:27:15.080Z,931.74
2017-03-28T00:27:43.317Z,931.7
2017-03-28T00:28:11.330Z,931.71
2017-03-28T00:28:39.688Z,931.67
2017-03-28T00:29:08.003Z,931.72
2017-03-28T00:29:36.358Z,931.73
2017-03-28T00:30:04.688Z,931.7
2017-03-28T00:30:33.219Z,931.69
2017-03-28T00:31:01.513Z,931.71
2017-03-28T00:31:30.066Z,931.74
2017-03-28T00:31:58.450Z,931.72
2017-03-28T00:32:26.775Z,931.72
2017-03-28T00:32:55.312Z,931.73
2017-03-28T00:33:24.223Z,931.74
2017-03-28T00:33:52.625Z,931.74
2017-03-28T00:34:20.911Z,931.75
2017-03-28T00:34:49.266Z,931.8
2017-03-28T00:35:17.650Z,931.74
2017-03-28T00:35:46.130Z,931.76
2017-03-28T00:36:14.404Z,931.73
2017-03-28T00:36:42.813Z,931.73
2017-03-28T00:37:11.024Z,931.8
2017-03-28T00:37:39.455Z,931.74
2017-03-28T00:38:07.898Z,931.79
2017-03-28T00:38:35.997Z,931.77
2017-03-28T00:39:04.107Z,931.75
2017-03-28T00:39:32.414Z,931.74
2017-03-28T00:40:00.679Z,931.79
2017-03-28T00:40:29.049Z,931.77
2017-03-28T00:40:57.438Z,931.76
2017-03-28T00:41:25.734Z,931.78
2017-03-28T00:41:54.115Z,931.81
2017-03-28T00:42:22.636Z,931.81
2017-03-28T00:42:50.901Z,931.77
2017-03-28T00:43:19.191Z,931.79
2017-03-28T00:43:47.593Z,931.78
2017-03-28T00:44:16.008Z,931.78
2017-03-28T00:44:44.506Z,931.77
2017-03-28T00:45:12.757Z,931.81
2017-03-28T00:45:41.543Z,931.78
2017-03-28T00:46:10.022Z,931.76
2017-03-28T00:46:38.527Z,931.76
2017-03-28T00:47:07.047Z,931.76
2017-03-28T00:47:35.450Z,931.75
2017-03-28T00:48:03.782Z,931.74
2017-03-28T00:48:32.131Z,931.75
2017-03-28T00:49:00.817Z,931.7
2017-03-28T00:49:29.270Z,931.73
2017-03-28T00:49:57.642Z,931.69
2017-03-28T00:50:26.119Z,931.67
2017-03-28T00:50:54.709Z,931.68
2017-03-28T00:51:23.070Z,931.7
2017-03-28T00:51:51.419Z,931.71
2017-03-28T00:52:19.866Z,931.67
2017-03-28T00:52:48.435Z,931.79
2017-03-28T00:53:16.967Z,931.69
2017-03-28T00:53:45.261Z,931.7
2017-03-28T00:54:13.426Z,931.69
2017-03-28T00:54:41.914Z,931.71
2017-03-28T00:55:10.189Z,931.68
2017-03-28T00:55:38.626Z,931.73
2017-03-28T00:56:06.862Z,931.71
2017-03-28T00:56:35.140Z,931.74
2017-03-28T00:57:03.473Z,931.74
2017-03-28T00:57:32.092Z,931.71
2017-03-28T00:58:00.469Z,931.72
2017-03-28T00:58:28.921Z,931.72
2017-03-28T00:58:57.128Z,931.72
2017-03-28T00:59:25.437Z,931.74
2017-03-28T00:59:53.758Z,931.75
2017-03-28T01:00:22.182Z,931.73
2017-03-28T01:00:50.504Z,931.74
2017-03-28T01:01:18.803Z,931.75
2017-03-28T01:01:47.053Z,931.74
2017-03-28T01:02:15.486Z,931.73
2017-03-28T01:02:43.661Z,931.73
2017-03-28T01:03:11.859Z,931.71
2017-03-28T01:03:40.368Z,931.77
2017-03-28T01:04:08.639Z,931.75
2017-03-28T01:04:36.923Z,931.73
2017-03-28T01:05:05.126Z,931.73
2017-03-28T01:05:33.381Z,931.74
2017-03-28T01:06:01.776Z,931.75
2017-03-28T01:06:29.884Z,931.76
2017-03-28T01:06:58.145Z,931.78
2017-03-28T01:07:26.561Z,931.75
2017-03-28T01:07:54.855Z,931.72
2017-03-28T01:08:23.339Z,931.7
2017-03-28T01:08:51.862Z,931.73
2017-03-28T01:09:20.310Z,931.72
2017-03-28T01:09:48.729Z,931.72
2017-03-28T01:10:17.063Z,931.76
2017-03-28T01:10:45.660Z,931.74
2017-03-28T01:11:13.925Z,931.77
2017-03-28T01:11:42.353Z,931.81
2017-03-28T01:12:10.774Z,931.77
2017-03-28T01:12:39.252Z,931.79
2017-03-28T01:13:07.695Z,931.71
2017-03-28T01:13:36.192Z,931.74
2017-03-28T01:14:04.584Z,931.68
2017-03-28T01:14:32.862Z,931.73
2017-03-28T01:15:01.184Z,931.78
2017-03-28T01:15:29.451Z,931.67
2017-03-28T01:15:57.766Z,931.63
2017-03-28T01:16:26.066Z,931.66
2017-03-28T01:16:54.587Z,931.64
2017-03-28T01:17:22.962Z,931.66
2017-03-28T01:17:51.317Z,931.62
2017-03-28T01:18:19.694Z,931.65
2017-03-28T01:18:48.049Z,931.63
2017-03-28T01:19:16.426Z,931.63
2017-03-28T01:19:44.943Z,931.61
2017-03-28T01:20:13.378Z,931.58
2017-03-28T01:20:41.926Z,931.61
2017-03-28T01:21:10.359Z,931.58
2017-03-28T01:21:38.669Z,931.57
2017-03-28T01:22:06.995Z,931.58
2017-03-28T01:22:35.449Z,931.58
2017-03-28T01:23:03.948Z,931.59
2017-03-28T01:23:32.324Z,931.62
2017-03-28T01:24:00.786Z,931.59
2017-03-28T01:24:29.231Z,931.59
2017-03-28T01:24:57.725Z,931.56
2017-03-28T01:25:26.018Z,931.58
2017-03-28T01:25:54.388Z,931.57
2017-03-28T01:26:22.692Z,931.56
2017-03-28T01:26:50.977Z,931.57
2017-03-28T01:27:19.500Z,931.58
2017-03-28T01:27:48.277Z,931.59
2017-03-28T01:28:16.514Z,931.58
2017-03-28T01:28:45.683Z,931.55
2017-03-28T01:29:14.030Z,931.57
2017-03-28T01:29:42.386Z,931.54
2017-03-28T01:30:10.675Z,931.59
2017-03-28T01:30:39.283Z,931.58
2017-03-28T01:31:07.754Z,931.54
2017-03-28T01:31:36.051Z,931.52
2017-03-28T01:32:04.445Z,931.54
2017-03-28T01:32:32.811Z,931.56
2017-03-28T01:33:01.088Z,931.54
2017-03-28T01:33:29.423Z,931.57
2017-03-28T01:33:57.788Z,931.56
2017-03-28T01:34:26.146Z,931.58
2017-03-28T01:34:54.674Z,931.61
2017-03-28T01:35:22.967Z,931.63
2017-03-28T01:35:51.116Z,931.59
2017-03-28T01:36:19.342Z,931.61
2017-03-28T01:36:47.586Z,931.61
2017-03-28T01:37:16.113Z,931.59
2017-03-28T01:37:44.526Z,931.61
2017-03-28T01:38:12.653Z,931.62
2017-03-28T01:38:41.015Z,931.62
2017-03-28T01:39:09.133Z,931.66
2017-03-28T01:39:37.425Z,931.65
2017-03-28T01:40:05.602Z,931.66
2017-03-28T01:40:33.965Z,931.64
2017-03-28T01:41:02.323Z,931.58
2017-03-28T01:41:30.584Z,931.61
2017-03-28T01:41:58.693Z,931.61
2017-03-28T01:42:26.999Z,931.59
2017-03-28T01:42:55.342Z,931.61
2017-03-28T01:43:23.598Z,931.61
2017-03-28T01:43:51.826Z,931.6
2017-03-28T01:44:20.093Z,931.57
2017-03-28T01:44:48.384Z,931.64
2017-03-28T01:45:16.574Z,931.58
2017-03-28T01:45:44.781Z,931.55
2017-03-28T01:46:12.910Z,931.64
2017-03-28T01:46:41.111Z,931.57
2017-03-28T01:47:09.220Z,931.6
2017-03-28T01:47:37.524Z,931.57
2017-03-28T01:48:05.769Z,931.54
2017-03-28T01:48:34.123Z,931.57
2017-03-28T01:49:02.503Z,931.58
2017-03-28T01:49:30.840Z,931.6
2017-03-28T01:49:59.115Z,931.61
2017-03-28T01:50:27.456Z,931.58
2017-03-28T01:50:55.595Z,931.54
2017-03-28T01:51:23.789Z,931.58
2017-03-28T01:51:52.121Z,931.57
2017-03-28T01:52:20.368Z,931.53
2017-03-28T01:52:48.702Z,931.54
2017-03-28T01:53:17.078Z,931.54
2017-03-28T01:53:45.469Z,931.55
2017-03-28T01:54:13.764Z,931.51
2017-03-28T01:54:42.232Z,931.53
2017-03-28T01:55:10.682Z,931.52
2017-03-28T01:55:39.157Z,931.53
2017-03-28T01:56:07.672Z,931.51
2017-03-28T01:56:35.967Z,931.5
2017-03-28T01:57:04.488Z,931.52
2017-03-28T01:57:32.821Z,931.52
2017-03-28T01:58:01.290Z,931.53
2017-03-28T01:58:29.603Z,931.5
2017-03-28T01:58:57.853Z,931.58
2017-03-28T01:59:26.165Z,931.51
2017-03-28T01:59:54.294Z,931.5
2017-03-28T02:00:22.601Z,931.5
2017-03-28T02:00:50.999Z,931.5
2017-03-28T02:01:19.403Z,931.44
2017-03-28T02:01:47.662Z,931.46
2017-03-28T02:02:15.952Z,931.45
2017-03-28T02:02:44.185Z,931.48
2017-03-28T02:03:12.665Z,931.43
2017-03-28T02:03:41.018Z,931.41
2017-03-28T02:04:09.437Z,931.42
2017-03-28T02:04:37.644Z,931.42
2017-03-28T02:05:05.996Z,931.39
2017-03-28T02:05:34.378Z,931.38
2017-03-28T02:06:02.857Z,931.37
2017-03-28T02:06:30.998Z,931.45
2017-03-28T02:06:59.310Z,931.42
2017-03-28T02:07:27.618Z,931.41
2017-03-28T02:07:55.882Z,931.42
2017-03-28T02:08:23.974Z,931.36
2017-03-28T02:08:52.292Z,931.44
2017-03-28T02:09:20.578Z,931.43
2017-03-28T02:09:48.807Z,931.38
2017-03-28T02:10:17.335Z,931.45
2017-03-28T02:10:45.610Z,931.45
2017-03-28T02:11:13.920Z,931.44
2017-03-28T02:11:42.095Z,931.43
2017-03-28T02:12:10.462Z,931.48
2017-03-28T02:12:38.737Z,931.45
2017-03-28T02:13:07.105Z,931.48
2017-03-28T02:13:35.389Z,931.46
2017-03-28T02:14:03.698Z,931.46
2017-03-28T02:14:32.139Z,931.48
2017-03-28T02:15:00.549Z,931.48
2017-03-28T02:15:28.859Z,931.49
2017-03-28T02:15:57.273Z,931.53
2017-03-28T02:16:25.705Z,931.5
2017-03-28T02:16:53.950Z,931.56
2017-03-28T02:17:22.757Z,931.54
2017-03-28T02:18:16.845Z,931.55
2017-03-28T02:18:45.315Z,931.54
2017-03-28T02:19:13.715Z,931.57
2017-03-28T02:19:42.182Z,931.52
2017-03-28T02:20:10.535Z,931.55
2017-03-28T02:20:38.847Z,931.55
2017-03-28T02:21:07.247Z,931.53
2017-03-28T02:21:35.609Z,931.59
2017-03-28T02:22:04.093Z,931.55
2017-03-28T02:22:32.369Z,931.57
2017-03-28T02:23:01.140Z,931.55
2017-03-28T02:23:29.664Z,931.55
2017-03-28T02:23:58.166Z,931.53
2017-03-28T02:24:26.567Z,931.56
2017-03-28T02:24:55.294Z,931.59
2017-03-28T02:25:23.804Z,931.51
2017-03-28T02:25:52.092Z,931.57
2017-03-28T02:26:20.534Z,931.54
2017-03-28T02:26:49.056Z,931.54
2017-03-28T02:27:17.373Z,931.49
2017-03-28T02:27:45.759Z,931.56
2017-03-28T02:28:14.147Z,931.53
2017-03-28T02:28:42.447Z,931.51
2017-03-28T02:29:10.727Z,931.51
2017-03-28T02:29:39.114Z,931.49
2017-03-28T02:30:07.453Z,931.49
2017-03-28T02:30:35.865Z,931.49
2017-03-28T02:31:04.331Z,931.49
2017-03-28T02:31:32.823Z,931.5
2017-03-28T02:32:01.339Z,931.5
2017-03-28T02:32:29.763Z,931.54
2017-03-28T02:32:57.966Z,931.5
2017-03-28T02:33:26.485Z,931.53
2017-03-28T02:33:54.788Z,931.54
2017-03-28T02:34:23.102Z,931.53
2017-03-28T02:34:51.601Z,931.52
2017-03-28T02:35:19.946Z,931.51
2017-03-28T02:35:48.314Z,931.52
2017-03-28T02:36:16.481Z,931.52
2017-03-28T02:36:44.788Z,931.51
2017-03-28T02:37:13.051Z,931.49
2017-03-28T02:37:41.318Z,931.49
2017-03-28T02:38:09.614Z,931.51
2017-03-28T02:38:37.894Z,931.52
2017-03-28T02:39:06.395Z,931.48
2017-03-28T02:39:34.776Z,931.48
2017-03-28T02:40:03.194Z,931.41
2017-03-28T02:40:31.683Z,931.43
2017-03-28T02:41:00.155Z,931.43
2017-03-28T02:41:28.400Z,931.43
2017-03-28T02:41:56.778Z,931.45
2017-03-28T02:42:24.870Z,931.45
2017-03-28T02:42:53.140Z,931.45
2017-03-28T02:43:21.538Z,931.44
2017-03-28T02:43:49.851Z,931.47
2017-03-28T02:44:18.179Z,931.42
2017-03-28T02:44:46.434Z,931.45
2017-03-28T02:45:14.577Z,931.43
2017-03-28T02:45:42.809Z,931.45
2017-03-28T02:46:10.969Z,931.44
2017-03-28T02:46:39.171Z,931.45
2017-03-28T02:47:07.241Z,931.42
2017-03-28T02:47:35.493Z,931.42
2017-03-28T02:48:03.702Z,931.42
2017-03-28T02:48:31.852Z,931.45
2017-03-28T02:49:00.148Z,931.48
2017-03-28T02:49:28.498Z,931.5
2017-03-28T02:49:56.608Z,931.49
2017-03-28T02:50:24.948Z,931.53
2017-03-28T02:50:54.029Z,931.55
2017-03-28T02:51:22.411Z,931.57
2017-03-28T02:51:50.630Z,931.57
2017-03-28T02:52:18.956Z,931.58
2017-03-28T02:52:47.215Z,931.59
2017-03-28T02:53:15.573Z,931.58
2017-03-28T02:53:43.710Z,931.6
2017-03-28T02:54:12.096Z,931.57
2017-03-28T02:54:40.181Z,931.61
2017-03-28T02:55:08.397Z,931.59
2017-03-28T02:55:36.477Z,931.57
2017-03-28T02:56:04.557Z,931.58
2017-03-28T02:56:32.692Z,931.54
2017-03-28T02:57:00.735Z,931.54
2017-03-28T02:57:29.106Z,931.55
2017-03-28T02:57:57.280Z,931.56
2017-03-28T02:58:25.336Z,931.53
2017-03-28T02:58:53.520Z,931.53
2017-03-28T02:59:21.962Z,931.54
2017-03-28T02:59:50.169Z,931.51
2017-03-28T03:00:18.391Z,931.56
2017-03-28T03:00:46.503Z,931.53
2017-03-28T03:01:14.614Z,931.54
2017-03-28T03:01:43.057Z,931.56
2017-03-28T03:02:11.497Z,931.58
2017-03-28T03:02:39.812Z,931.53
2017-03-28T03:03:08.264Z,931.55
2017-03-28T03:03:36.661Z,931.52
2017-03-28T03:04:04.858Z,931.5
2017-03-28T03:04:33.289Z,931.47
2017-03-28T03:05:01.547Z,931.51
2017-03-28T03:05:29.874Z,931.46
2017-03-28T03:05:58.163Z,931.48
2017-03-28T03:06:26.530Z,931.44
2017-03-28T03:06:55.041Z,931.43
2017-03-28T03:07:23.345Z,931.47
2017-03-28T03:07:51.615Z,931.46
2017-03-28T03:08:19.905Z,931.47
2017-03-28T03:08:48.010Z,931.44
2017-03-28T03:09:16.037Z,931.46
2017-03-28T03:09:44.070Z,931.45
2017-03-28T03:10:12.412Z,931.45
2017-03-28T03:10:40.728Z,931.42
2017-03-28T03:11:09.288Z,931.45
2017-03-28T03:11:37.590Z,931.41
2017-03-28T03:12:05.912Z,931.41
2017-03-28T03:12:34.399Z,931.36
2017-03-28T03:13:02.837Z,931.38
2017-03-28T03:13:31.134Z,931.34
2017-03-28T03:13:59.444Z,931.35
2017-03-28T03:14:27.493Z,931.34
2017-03-28T03:14:55.491Z,931.31
2017-03-28T03:15:23.782Z,931.31
2017-03-28T03:15:52.152Z,931.33
2017-03-28T03:16:20.417Z,931.34
2017-03-28T03:16:48.513Z,931.4
2017-03-28T03:17:16.819Z,931.36
2017-03-28T03:17:45.072Z,931.39
2017-03-28T03:18:13.553Z,931.36
2017-03-28T03:18:41.897Z,931.37
2017-03-28T03:19:09.974Z,931.37
2017-03-28T03:19:38.417Z,931.35
2017-03-28T03:20:06.503Z,931.38
2017-03-28T03:20:34.673Z,931.32
2017-03-28T03:21:02.678Z,931.35
2017-03-28T03:21:30.815Z,931.34
2017-03-28T03:21:59.178Z,931.35
2017-03-28T03:22:27.387Z,931.38
2017-03-28T03:22:55.539Z,931.34
2017-03-28T03:23:23.828Z,931.34
2017-03-28T03:23:52.170Z,931.34
2017-03-28T03:24:20.444Z,931.34
2017-03-28T03:24:48.719Z,931.33
2017-03-28T03:25:16.796Z,931.34
2017-03-28T03:25:45.057Z,931.33
2017-03-28T03:26:13.231Z,931.36
2017-03-28T03:26:41.490Z,931.33
2017-03-28T03:27:09.696Z,931.34
2017-03-28T03:27:37.950Z,931.32
2017-03-28T03:28:06.168Z,931.31
2017-03-28T03:28:34.464Z,931.34
2017-03-28T03:29:02.705Z,931.39
2017-03-28T03:29:30.980Z,931.33
2017-03-28T03:29:59.309Z,931.37
2017-03-28T03:30:27.345Z,931.27
2017-03-28T03:30:55.564Z,931.33
2017-03-28T03:31:23.847Z,931.29
2017-03-28T03:31:52.047Z,931.31
2017-03-28T03:32:20.354Z,931.28
2017-03-28T03:32:48.623Z,931.26
2017-03-28T03:33:16.810Z,931.27
2017-03-28T03:34:16.708Z,931.28
2017-03-28T03:34:45.153Z,931.23
2017-03-28T03:35:13.462Z,931.23
2017-03-28T03:35:41.751Z,931.22
2017-03-28T03:36:10.111Z,931.21
2017-03-28T03:36:38.511Z,931.26
2017-03-28T03:37:07.122Z,931.23
2017-03-28T03:37:35.376Z,931.23
2017-03-28T03:38:03.689Z,931.24
2017-03-28T03:38:32.037Z,931.25
2017-03-28T03:39:00.370Z,931.24
2017-03-28T03:39:28.583Z,931.26
2017-03-28T03:39:57.070Z,931.24
2017-03-28T03:40:25.477Z,931.25
2017-03-28T03:40:53.765Z,931.25
2017-03-28T03:41:22.145Z,931.25
2017-03-28T03:41:50.538Z,931.27
2017-03-28T03:42:18.986Z,931.3
2017-03-28T03:42:47.363Z,931.27
2017-03-28T03:43:15.633Z,931.23
2017-03-28T03:43:43.835Z,931.27
2017-03-28T03:44:12.238Z,931.22
2017-03-28T03:44:40.742Z,931.23
2017-03-28T03:45:09.011Z,931.26
2017-03-28T03:45:37.197Z,931.26
2017-03-28T03:46:05.249Z,931.23
2017-03-28T03:46:33.365Z,931.18
2017-03-28T03:47:01.468Z,931.26
2017-03-28T03:47:29.779Z,931.24
2017-03-28T03:47:57.982Z,931.22
2017-03-28T03:48:26.151Z,931.18
2017-03-28T03:48:54.427Z,931.27
2017-03-28T03:49:22.621Z,931.17
2017-03-28T03:49:50.749Z,931.25
2017-03-28T03:50:19.077Z,931.29
2017-03-28T03:50:47.288Z,931.29
2017-03-28T03:51:15.502Z,931.38
2017-03-28T03:51:43.603Z,931.29
2017-03-28T03:52:11.780Z,931.26
2017-03-28T03:52:39.979Z,931.29
2017-03-28T03:53:08.283Z,931.34
2017-03-28T03:53:36.578Z,931.31
2017-03-28T03:54:04.763Z,931.42
2017-03-28T03:54:32.988Z,931.37
2017-03-28T03:55:01.119Z,931.31
2017-03-28T03:55:29.446Z,931.32
2017-03-28T03:55:57.554Z,931.38
2017-03-28T03:56:25.843Z,931.37
2017-03-28T03:56:54.131Z,931.39
2017-03-28T03:57:22.328Z,931.33
2017-03-28T03:57:50.459Z,931.3
2017-03-28T03:58:18.704Z,931.31
2017-03-28T03:58:46.973Z,931.28
2017-03-28T03:59:15.257Z,931.32
2017-03-28T03:59:43.542Z,931.29
2017-03-28T04:00:11.719Z,931.27
2017-03-28T04:00:40.061Z,931.25
2017-03-28T04:01:08.249Z,931.25
2017-03-28T04:01:36.264Z,931.26
2017-03-28T04:02:04.508Z,931.24
2017-03-28T04:02:32.677Z,931.24
2017-03-28T04:03:00.895Z,931.22
2017-03-28T04:03:29.134Z,931.23
2017-03-28T04:03:57.440Z,931.22
2017-03-28T04:04:25.714Z,931.19
2017-03-28T04:04:54.017Z,931.19
2017-03-28T04:05:22.116Z,931.2
2017-03-28T04:05:50.325Z,931.18
2017-03-28T04:06:18.566Z,931.22
2017-03-28T04:06:46.880Z,931.19
2017-03-28T04:07:15.102Z,931.19
2017-03-28T04:07:43.254Z,931.19
2017-03-28T04:08:11.391Z,931.19
2017-03-28T04:08:39.727Z,931.19
2017-03-28T04:09:07.869Z,931.2
2017-03-28T04:09:36.201Z,931.2
2017-03-28T04:10:04.388Z,931.2
2017-03-28T04:10:32.526Z,931.2
2017-03-28T04:11:00.814Z,931.21
2017-03-28T04:11:29.035Z,931.18
2017-03-28T04:11:57.220Z,931.17
2017-03-28T04:12:25.486Z,931.2
2017-03-28T04:12:53.692Z,931.18
2017-03-28T04:13:21.913Z,931.16
2017-03-28T04:13:50.256Z,931.17
2017-03-28T04:14:18.465Z,931.13
2017-03-28T04:14:46.668Z,931.14
2017-03-28T04:15:14.974Z,931.14
2017-03-28T04:15:43.249Z,931.13
2017-03-28T04:16:11.572Z,931.14
2017-03-28T04:16:40.220Z,931.13
2017-03-28T04:17:08.590Z,931.13
2017-03-28T04:17:36.929Z,931.13
2017-03-28T04:18:05.096Z,931.13
2017-03-28T04:18:33.390Z,931.1
2017-03-28T04:19:01.485Z,931.1
2017-03-28T04:19:29.689Z,931.1
2017-03-28T04:19:57.987Z,931.09
2017-03-28T04:20:26.291Z,931.06
2017-03-28T04:20:54.637Z,931.06
2017-03-28T04:21:23.010Z,931.05
2017-03-28T04:21:51.156Z,931.04
2017-03-28T04:22:19.532Z,931.05
2017-03-28T04:22:47.842Z,931.02
2017-03-28T04:23:16.180Z,930.99
2017-03-28T04:23:44.408Z,930.99
2017-03-28T04:24:12.502Z,930.98
2017-03-28T04:24:40.858Z,930.97
2017-03-28T04:25:09.160Z,930.99
2017-03-28T04:25:37.494Z,930.96
2017-03-28T04:26:05.579Z,930.97
2017-03-28T04:26:35.009Z,930.94
2017-03-28T04:27:03.522Z,930.93
2017-03-28T04:27:31.739Z,930.96
2017-03-28T04:27:59.969Z,930.96
2017-03-28T04:28:28.235Z,930.92
2017-03-28T04:28:56.592Z,930.93
2017-03-28T04:29:24.916Z,930.92
2017-03-28T04:29:53.193Z,930.93
2017-03-28T04:30:21.615Z,930.92
2017-03-28T04:30:49.922Z,930.97
2017-03-28T04:31:18.135Z,930.96
2017-03-28T04:31:47.211Z,930.95
2017-03-28T04:32:15.401Z,930.98
2017-03-28T04:32:43.617Z,930.98
2017-03-28T04:33:12.049Z,930.98
2017-03-28T04:33:40.202Z,930.97
2017-03-28T04:34:08.538Z,930.94
2017-03-28T04:34:36.919Z,930.98
2017-03-28T04:35:04.919Z,930.94
2017-03-28T04:35:33.168Z,930.95
2017-03-28T04:36:01.394Z,930.96
2017-03-28T04:36:29.452Z,930.98
2017-03-28T04:36:57.888Z,930.95
2017-03-28T04:37:26.204Z,931
2017-03-28T04:37:54.608Z,930.97
2017-03-28T04:38:22.874Z,930.96
2017-03-28T04:38:51.005Z,930.97
2017-03-28T04:39:19.137Z,930.98
2017-03-28T04:39:47.330Z,930.94
2017-03-28T04:40:15.632Z,930.97
2017-03-28T04:40:43.952Z,930.91
2017-03-28T04:41:12.168Z,930.93
2017-03-28T04:41:40.469Z,930.9
2017-03-28T04:42:08.745Z,930.9
2017-03-28T04:42:37.197Z,930.89
2017-03-28T04:43:05.310Z,930.9
2017-03-28T04:43:33.632Z,930.9
2017-03-28T04:44:01.816Z,930.9
2017-03-28T04:44:30.062Z,930.89
2017-03-28T04:44:58.266Z,930.95
2017-03-28T04:45:26.479Z,930.87
2017-03-28T04:45:54.804Z,930.9
2017-03-28T04:46:23.349Z,930.89
2017-03-28T04:46:51.864Z,930.92
2017-03-28T04:47:20.134Z,930.92
2017-03-28T04:47:48.325Z,930.94
2017-03-28T04:48:16.540Z,930.91
2017-03-28T04:48:44.870Z,930.95
2017-03-28T04:49:13.476Z,930.94
2017-03-28T04:49:41.717Z,930.95
2017-03-28T04:50:09.741Z,930.93
2017-03-28T04:50:38.036Z,930.92
2017-03-28T04:51:06.227Z,930.93
2017-03-28T04:51:34.394Z,930.95
2017-03-28T04:52:02.522Z,930.97
2017-03-28T04:52:30.821Z,930.95
2017-03-28T04:52:59.092Z,930.94
2017-03-28T04:53:27.656Z,930.98
2017-03-28T04:53:55.926Z,930.95
2017-03-28T04:54:24.126Z,930.92
2017-03-28T04:54:52.390Z,930.91
2017-03-28T04:55:20.622Z,930.96
2017-03-28T04:55:49.045Z,930.93
2017-03-28T04:56:17.307Z,930.9
2017-03-28T04:56:45.514Z,930.95
2017-03-28T04:57:13.751Z,930.94
2017-03-28T04:57:41.979Z,930.95
2017-03-28T04:58:10.113Z,930.95
2017-03-28T04:58:38.355Z,930.98
2017-03-28T04:59:06.713Z,930.98
2017-03-28T04:59:34.873Z,930.97
2017-03-28T05:00:03.201Z,930.95
2017-03-28T05:00:31.510Z,930.94
2017-03-28T05:00:59.646Z,930.98
2017-03-28T05:01:28.005Z,930.97
2017-03-28T05:01:56.333Z,930.95
2017-03-28T05:02:24.598Z,931
2017-03-28T05:02:52.973Z,930.95
2017-03-28T05:03:21.350Z,930.97
2017-03-28T05:03:49.477Z,931
2017-03-28T05:04:17.754Z,930.98
2017-03-28T05:04:46.041Z,930.97
2017-03-28T05:05:14.150Z,930.98
2017-03-28T05:05:42.388Z,930.95
2017-03-28T05:06:10.775Z,930.95
2017-03-28T05:06:39.108Z,930.93
2017-03-28T05:07:07.681Z,930.92
2017-03-28T05:07:35.816Z,930.91
2017-03-28T05:08:03.917Z,930.94
2017-03-28T05:08:32.229Z,930.92
2017-03-28T05:09:00.599Z,930.89
2017-03-28T05:09:29.197Z,930.91
2017-03-28T05:09:57.493Z,930.91
2017-03-28T05:10:25.908Z,930.92
2017-03-28T05:10:54.230Z,930.93
2017-03-28T05:11:22.617Z,930.89
2017-03-28T05:11:50.719Z,930.88
2017-03-28T05:12:19.043Z,930.88
2017-03-28T05:12:47.154Z,930.88
2017-03-28T05:13:15.507Z,930.86
2017-03-28T05:13:43.718Z,930.87
2017-03-28T05:14:12.073Z,930.84
2017-03-28T05:14:40.423Z,930.81
2017-03-28T05:15:08.778Z,930.84
2017-03-28T05:15:36.986Z,930.87
2017-03-28T05:16:05.325Z,930.83
2017-03-28T05:16:33.619Z,930.79
2017-03-28T05:17:01.962Z,930.74
2017-03-28T05:17:30.102Z,930.76
2017-03-28T05:17:58.545Z,930.76
2017-03-28T05:18:26.727Z,930.78
2017-03-28T05:18:55.309Z,930.76
2017-03-28T05:19:23.540Z,930.74
2017-03-28T05:19:51.849Z,930.73
2017-03-28T05:20:20.205Z,930.78
2017-03-28T05:20:48.680Z,930.71
2017-03-28T05:21:17.031Z,930.73
2017-03-28T05:21:45.291Z,930.72
2017-03-28T05:22:13.720Z,930.7
2017-03-28T05:22:41.983Z,930.72
2017-03-28T05:23:10.339Z,930.69
2017-03-28T05:23:38.569Z,930.7
2017-03-28T05:24:06.905Z,930.68
2017-03-28T05:24:35.174Z,930.63
2017-03-28T05:25:03.328Z,930.63
2017-03-28T05:25:31.425Z,930.61
2017-03-28T05:25:59.699Z,930.61
2017-03-28T05:26:27.904Z,930.61
2017-03-28T05:26:56.205Z,930.58
2017-03-28T05:27:24.585Z,930.61
2017-03-28T05:27:52.855Z,930.63
2017-03-28T05:28:20.756Z,930.61
2017-03-28T05:28:49.071Z,930.62
2017-03-28T05:29:17.375Z,930.58
2017-03-28T05:29:45.568Z,930.63
2017-03-28T05:30:13.730Z,930.61
2017-03-28T05:30:41.960Z,930.59
2017-03-28T05:31:10.243Z,930.61
2017-03-28T05:31:38.542Z,930.61
2017-03-28T05:32:07.066Z,930.63
2017-03-28T05:32:35.364Z,930.61
2017-03-28T05:33:03.616Z,930.63
2017-03-28T05:33:31.721Z,930.62
2017-03-28T05:34:00.008Z,930.6
2017-03-28T05:34:28.304Z,930.58
2017-03-28T05:34:56.545Z,930.59
2017-03-28T05:35:24.903Z,930.6
2017-03-28T05:35:53.204Z,930.6
2017-03-28T05:36:21.467Z,930.59
2017-03-28T05:36:49.801Z,930.58
2017-03-28T05:37:17.892Z,930.59
2017-03-28T05:37:46.248Z,930.59
2017-03-28T05:38:14.539Z,930.58
2017-03-28T05:38:42.842Z,930.6
2017-03-28T05:39:11.157Z,930.58
2017-03-28T05:39:39.456Z,930.58
2017-03-28T05:40:07.757Z,930.57
2017-03-28T05:40:35.944Z,930.56
2017-03-28T05:41:04.190Z,930.58
2017-03-28T05:41:32.549Z,930.56
2017-03-28T05:42:00.980Z,930.57
2017-03-28T05:42:29.510Z,930.54
2017-03-28T05:42:57.845Z,930.53
2017-03-28T05:43:26.145Z,930.57
2017-03-28T05:43:54.425Z,930.56
2017-03-28T05:44:22.830Z,930.54
2017-03-28T05:44:50.971Z,930.55
2017-03-28T05:45:19.356Z,930.54
2017-03-28T05:45:47.601Z,930.52
2017-03-28T05:46:15.961Z,930.5
2017-03-28T05:46:44.342Z,930.51
2017-03-28T05:47:12.612Z,930.53
2017-03-28T05:47:40.825Z,930.51
2017-03-28T05:48:09.136Z,930.52
2017-03-28T05:48:37.388Z,930.56
2017-03-28T05:49:05.640Z,930.53
2017-03-28T05:49:33.977Z,930.54
2017-03-28T05:50:02.298Z,930.55
2017-03-28T05:50:30.425Z,930.52
2017-03-28T05:50:58.583Z,930.53
2017-03-28T05:51:26.942Z,930.53
2017-03-28T05:51:55.303Z,930.5
2017-03-28T05:52:23.719Z,930.49
2017-03-28T05:52:52.058Z,930.52
2017-03-28T05:53:20.380Z,930.52
2017-03-28T05:53:48.499Z,930.52
2017-03-28T05:54:16.845Z,930.5
2017-03-28T05:54:45.231Z,930.48
2017-03-28T05:55:13.551Z,930.51